sensor_id;sensor_type;location;lat;lon;timestamp;P1;durP1;ratioP1;P2;durP2;ratioP2
9324;SDS011;4701;51.566;6.776;2024-01-15T06:06:12;15.53;;;7.60;;
9324;SDS011;4701;51.566;6.776;2024-01-15T06:11:14;17.77;;;8.17;;
9324;SDS011;4701;51.566;6.776;2024-01-15T06:16:15;13.07;;;8.33;;
9324;SDS011;4701;51.566;6.776;2024-01-15T06:21:20;14.43;;;7.57;;
9324;SDS011;4701;51.566;6.776;2024-01-15T06:26:22;13.10;;;8.30;;
9324;SDS011;4701;51.566;6.776;2024-01-15T06:31:23;11.07;;;7.07;;
9324;SDS011;4701;51.566;6.776;2024-01-15T06:36:26;7.80;;;6.47;;
9324;SDS011;4701;51.566;6.776;2024-01-15T06:41:28;10.93;;;5.40;;
9324;SDS011;4701;51.566;6.776;2024-01-15T06:46:29;9.30;;;5.83;;
9324;SDS011;4701;51.566;6.776;2024-01-15T06:51:32;9.53;;;4.80;;
9324;SDS011;4701;51.566;6.776;2024-01-15T06:56:34;6.40;;;4.00;;
9324;SDS011;4701;51.566;6.776;2024-01-15T07:01:35;8.37;;;3.90;;
9324;SDS011;4701;51.566;6.776;2024-01-15T07:06:39;7.03;;;3.20;;
9324;SDS011;4701;51.566;6.776;2024-01-15T07:11:43;5.70;;;3.47;;
9324;SDS011;4701;51.566;6.776;2024-01-15T07:16:46;5.10;;;3.10;;
9324;SDS011;4701;51.566;6.776;2024-01-15T07:21:49;6.07;;;3.03;;
9324;SDS011;4701;51.566;6.776;2024-01-15T07:26:51;7.03;;;3.70;;
9324;SDS011;4701;51.566;6.776;2024-01-15T15:33:59;4.70;;;2.60;;
9324;SDS011;4701;51.566;6.776;2024-01-15T15:39:00;4.53;;;2.40;;
9324;SDS011;4701;51.566;6.776;2024-01-15T15:44:02;3.40;;;2.33;;
9324;SDS011;4701;51.566;6.776;2024-01-15T15:49:05;5.87;;;2.70;;
9324;SDS011;4701;51.566;6.776;2024-01-15T15:54:07;6.00;;;2.83;;
9324;SDS011;4701;51.566;6.776;2024-01-15T15:59:09;6.07;;;3.30;;
9324;SDS011;4701;51.566;6.776;2024-01-15T16:04:11;6.40;;;3.13;;
9324;SDS011;4701;51.566;6.776;2024-01-15T16:09:15;4.77;;;3.33;;
9324;SDS011;4701;51.566;6.776;2024-01-15T16:14:16;6.03;;;3.50;;
9324;SDS011;4701;51.566;6.776;2024-01-15T16:19:20;9.67;;;4.10;;
9324;SDS011;4701;51.566;6.776;2024-01-15T16:24:21;5.10;;;3.33;;
9324;SDS011;4701;51.566;6.776;2024-01-15T16:29:25;6.97;;;4.37;;
9324;SDS011;4701;51.566;6.776;2024-01-15T16:34:28;7.93;;;5.03;;
9324;SDS011;4701;51.566;6.776;2024-01-15T16:39:29;6.37;;;4.60;;
9324;SDS011;4701;51.566;6.776;2024-01-15T16:44:31;7.90;;;5.47;;
9324;SDS011;4701;51.566;6.776;2024-01-15T16:49:34;9.80;;;5.67;;
9324;SDS011;4701;51.566;6.776;2024-01-15T16:54:36;10.50;;;6.27;;
9324;SDS011;4701;51.566;6.776;2024-01-15T16:59:37;10.07;;;6.20;;
9324;SDS011;4701;51.566;6.776;2024-01-15T17:04:41;9.13;;;6.43;;
9324;SDS011;4701;51.566;6.776;2024-01-15T17:09:42;8.33;;;6.77;;
9324;SDS011;4701;51.566;6.776;2024-01-15T17:14:44;10.27;;;7.07;;
9324;SDS011;4701;51.566;6.776;2024-01-15T17:19:49;15.63;;;10.10;;
9324;SDS011;4701;51.566;6.776;2024-01-15T17:24:54;11.17;;;7.33;;
9324;SDS011;4701;51.566;6.776;2024-01-15T17:29:55;9.37;;;6.80;;
9324;SDS011;4701;51.566;6.776;2024-01-15T17:34:58;14.87;;;6.53;;
9324;SDS011;4701;51.566;6.776;2024-01-15T17:40:00;11.67;;;5.83;;
9324;SDS011;4701;51.566;6.776;2024-01-15T17:45:03;14.87;;;6.20;;
9324;SDS011;4701;51.566;6.776;2024-01-15T17:50:08;9.77;;;5.47;;
9324;SDS011;4701;51.566;6.776;2024-01-15T17:55:10;12.93;;;5.17;;
9324;SDS011;4701;51.566;6.776;2024-01-15T18:00:12;11.60;;;4.70;;
9324;SDS011;4701;51.566;6.776;2024-01-15T18:05:16;9.53;;;4.87;;
9324;SDS011;4701;51.566;6.776;2024-01-15T18:10:18;10.13;;;4.10;;
9324;SDS011;4701;51.566;6.776;2024-01-15T18:15:20;8.13;;;3.97;;
9324;SDS011;4701;51.566;6.776;2024-01-15T18:20:23;10.40;;;3.80;;
9324;SDS011;4701;51.566;6.776;2024-01-15T18:25:24;10.37;;;3.73;;
9324;SDS011;4701;51.566;6.776;2024-01-15T18:30:26;11.60;;;3.90;;
9324;SDS011;4701;51.566;6.776;2024-01-15T18:35:29;8.87;;;4.30;;
9324;SDS011;4701;51.566;6.776;2024-01-15T18:40:30;9.83;;;4.07;;
9324;SDS011;4701;51.566;6.776;2024-01-15T18:45:35;11.17;;;4.20;;
9324;SDS011;4701;51.566;6.776;2024-01-15T18:50:39;10.50;;;4.70;;
9324;SDS011;4701;51.566;6.776;2024-01-15T18:55:40;14.60;;;5.13;;
9324;SDS011;4701;51.566;6.776;2024-01-15T19:00:42;8.93;;;4.30;;
9324;SDS011;4701;51.566;6.776;2024-01-15T19:05:45;12.87;;;7.20;;
9324;SDS011;4701;51.566;6.776;2024-01-15T19:10:46;11.23;;;4.93;;
9324;SDS011;4701;51.566;6.776;2024-01-15T19:15:48;7.83;;;4.20;;
9324;SDS011;4701;51.566;6.776;2024-01-15T19:20:51;11.73;;;4.17;;
9324;SDS011;4701;51.566;6.776;2024-01-15T19:25:53;8.70;;;4.27;;
9324;SDS011;4701;51.566;6.776;2024-01-15T19:30:55;8.27;;;4.13;;
9324;SDS011;4701;51.566;6.776;2024-01-15T19:35:58;9.30;;;4.23;;
9324;SDS011;4701;51.566;6.776;2024-01-15T19:40:59;9.23;;;3.10;;
9324;SDS011;4701;51.566;6.776;2024-01-15T19:46:01;10.93;;;4.00;;
9324;SDS011;4701;51.566;6.776;2024-01-15T19:51:04;3.67;;;2.20;;
9324;SDS011;4701;51.566;6.776;2024-01-15T19:56:06;10.20;;;3.40;;
9324;SDS011;4701;51.566;6.776;2024-01-15T20:01:08;9.70;;;3.40;;
9324;SDS011;4701;51.566;6.776;2024-01-15T20:06:11;10.73;;;2.53;;
9324;SDS011;4701;51.566;6.776;2024-01-15T20:11:14;7.83;;;2.57;;
9324;SDS011;4701;51.566;6.776;2024-01-15T20:16:16;9.77;;;2.83;;
9324;SDS011;4701;51.566;6.776;2024-01-15T20:21:19;8.77;;;2.77;;
9324;SDS011;4701;51.566;6.776;2024-01-15T20:26:21;10.27;;;2.63;;
9324;SDS011;4701;51.566;6.776;2024-01-15T20:31:22;9.57;;;2.57;;
9324;SDS011;4701;51.566;6.776;2024-01-15T20:36:25;6.70;;;3.57;;
9324;SDS011;4701;51.566;6.776;2024-01-15T20:41:27;9.93;;;3.07;;
9324;SDS011;4701;51.566;6.776;2024-01-15T20:46:29;6.17;;;2.93;;
9324;SDS011;4701;51.566;6.776;2024-01-15T20:51:32;5.90;;;2.80;;
9324;SDS011;4701;51.566;6.776;2024-01-15T20:56:33;11.43;;;3.60;;
9324;SDS011;4701;51.566;6.776;2024-01-15T21:01:35;8.57;;;3.70;;
9324;SDS011;4701;51.566;6.776;2024-01-15T21:06:38;11.73;;;3.77;;
9324;SDS011;4701;51.566;6.776;2024-01-15T21:11:40;7.80;;;4.30;;
9324;SDS011;4701;51.566;6.776;2024-01-15T21:16:41;8.53;;;5.10;;
9324;SDS011;4701;51.566;6.776;2024-01-15T21:21:44;13.27;;;5.20;;
9324;SDS011;4701;51.566;6.776;2024-01-15T21:26:48;11.00;;;5.90;;
